Tripoli, Lebanon

7:46 PM EET on March 28, 2015 (GMT +0200)
Chekka Seaside | | Change Station
CLOSE
Current Station
Personal Weather Station
Location: Chekka, NORTH
Elevation: 3 ft
Nearby Weather Stations

Elev 3 ft 34.33 °N, 35.72 °E | Updated 13 seconds ago

Scattered Clouds
Scattered Clouds
67.5 °F
Feels Like 67.5 °F
N
1.6
Wind Variable Wind from ESE
Gusts 2.5 mph

Today
High -- | Low -- °F
--% Chance of Precip.
Yesterday
High -- | Low -- °F
Precip. -- in
5:30 AM 5:54 PM
Waxing Gibbous, 64% visible
Pressure 29.86 in
Visibility 4.3 miles
Clouds Scattered Clouds 2600 ft
Scattered Clouds 7000 ft
Dew Point 58 °F
Humidity 71%
Rainfall 0.08 in
Snow Depth Not available.
UV 0 out of 12
Pollen Not available.
Air Quality Not available.
Flu Activity Not available.
METAR OLBA 281700Z VRB02KT 7000 SCT026 SCT070 21/13 Q1011

More Conditions Fewer Conditions

Pressure 29.86 in
Visibility 4.3 miles
Clouds Scattered Clouds 2600 ft
Scattered Clouds 7000 ft
Dew Point 58 °F
Humidity 71%
Rainfall 0.08 in
Snow Depth Not available.
UV 0 out of 12
Pollen Not available.
Air Quality Not available.
Flu Activity Not available.
METAR OLBA 281700Z VRB02KT 7000 SCT026 SCT070 21/13 Q1011

More Conditions Fewer Conditions

10-Day Weather Forecast

Almanac

Astronomy

Mar. 28, 2015 Rise Set
Actual Time
Civil Twilight
Nautical Twilight
Astronomical Twilight
Moon
Length of Visible Light
Length of Day
Tomorrow will be .
, % of the Moon is Illuminated

Today's Extremes

Country Highs Country Lows

Community

WunderPhotos

Upload Photos

1,809,034 photos uploaded!

WunderBlogs® & News

Nearby

Air Quality

  Air Quality AQ Index Pollutant
Not available.

Snow Depth

Station Depth Elevation

Earthquake Activity

City Distance Mag. Time & Date
Minimum magnitude displayed is 2.5.

Coastal Water Temperatures

Place Temperature

Stations

Nearby Weather Stations

Station Location Temp. Windchill Dew Point Humidity Wind Precip. Elev Updated Type